Time;durP1;ratioP1;P1;durP2;ratioP2;P2;SDS_P1;SDS_P2;PMS_P1;PMS_P2;Temp;Humidity;BMP_temperature;BMP_pressure;BME280_temperature;BME280_humidity;BME280_pressure;Samples;Min_cycle;Max_cycle;Signal;HPM_P1;HPM_P2
2023/01/21 00:01:23;;;;;;;56.78;31.42;;;;;;;;;;5108061;28;20429;-79
2023/01/21 00:03:49;;;;;;;57.75;31.85;;;;;;;;;;5076402;28;20426;-79
2023/01/21 00:06:15;;;;;;;60.60;32.38;;;;;;;;;;5110376;28;20418;-80
2023/01/21 00:08:42;;;;;;;64.05;34.53;;;;;;;;;;5091435;28;20510;-80
2023/01/21 00:11:08;;;;;;;60.78;33.53;;;;;;;;;;5074729;28;20429;-80
2023/01/21 00:13:35;;;;;;;60.35;33.55;;;;;;;;;;5075462;28;20453;-80
2023/01/21 00:16:02;;;;;;;57.15;32.05;;;;;;;;;;5081496;28;20478;-80
2023/01/21 00:18:28;;;;;;;62.15;33.67;;;;;;;;;;5100068;28;20413;-80
2023/01/21 00:20:54;;;;;;;57.80;31.73;;;;;;;;;;5074662;28;20418;-80
2023/01/21 00:23:20;;;;;;;59.75;33.03;;;;;;;;;;5100393;28;20430;-80
2023/01/21 00:25:46;;;;;;;53.92;30.70;;;;;;;;;;5109215;28;20913;-80
2023/01/21 00:28:12;;;;;;;58.35;30.65;;;;;;;;;;5109515;28;20451;-80
2023/01/21 00:30:40;;;;;;;58.85;30.58;;;;;;;;;;5108104;28;20418;-80
2023/01/21 00:33:06;;;;;;;55.00;29.60;;;;;;;;;;5075990;28;20402;-80
2023/01/21 00:35:33;;;;;;;56.97;30.33;;;;;;;;;;5079560;28;20473;-79
2023/01/21 00:37:59;;;;;;;57.72;30.95;;;;;;;;;;5101340;28;20443;-80
2023/01/21 00:40:25;;;;;;;57.00;30.20;;;;;;;;;;5074583;28;20422;-79
2023/01/21 00:42:51;;;;;;;62.38;31.40;;;;;;;;;;5092722;28;20782;-80
2023/01/21 00:45:17;;;;;;;58.67;31.60;;;;;;;;;;5087100;28;20414;-80
2023/01/21 00:47:44;;;;;;;61.45;32.58;;;;;;;;;;5090856;28;20421;-79
2023/01/21 00:50:10;;;;;;;58.80;31.95;;;;;;;;;;5074681;28;20952;-79
2023/01/21 00:52:37;;;;;;;58.20;32.27;;;;;;;;;;5091657;28;20920;-79
2023/01/21 00:55:04;;;;;;;62.17;33.15;;;;;;;;;;5106311;28;20425;-79
2023/01/21 00:57:30;;;;;;;63.47;33.40;;;;;;;;;;5092129;28;20499;-79
2023/01/21 00:59:56;;;;;;;61.97;33.13;;;;;;;;;;5089554;28;20445;-79
2023/01/21 01:02:22;;;;;;;66.72;34.40;;;;;;;;;;5091442;28;20398;-79
2023/01/21 01:04:48;;;;;;;61.95;32.95;;;;;;;;;;5073287;28;20422;-79
2023/01/21 01:07:14;;;;;;;63.90;32.97;;;;;;;;;;5074474;28;20454;-79
2023/01/21 01:09:40;;;;;;;69.90;33.85;;;;;;;;;;5108765;28;20906;-79
2023/01/21 01:12:06;;;;;;;66.53;33.60;;;;;;;;;;5092151;28;20398;-74
2023/01/21 01:14:32;;;;;;;70.68;33.58;;;;;;;;;;5072719;28;20456;-74
2023/01/21 01:16:58;;;;;;;66.78;33.38;;;;;;;;;;5089882;28;20428;-74
2023/01/21 01:19:25;;;;;;;64.90;33.33;;;;;;;;;;5107018;28;20437;-75
2023/01/21 01:21:51;;;;;;;63.13;32.42;;;;;;;;;;5074102;28;20422;-75
2023/01/21 01:24:17;;;;;;;66.77;32.67;;;;;;;;;;5106689;28;21006;-74
2023/01/21 01:26:43;;;;;;;64.03;32.47;;;;;;;;;;5091500;28;20902;-75
2023/01/21 01:29:11;;;;;;;62.65;32.35;;;;;;;;;;5079844;28;20451;-75
2023/01/21 01:31:37;;;;;;;62.22;31.73;;;;;;;;;;5105831;27;20433;-74
2023/01/21 01:34:03;;;;;;;58.83;31.60;;;;;;;;;;5086615;28;20451;-74
2023/01/21 01:36:29;;;;;;;58.30;29.90;;;;;;;;;;5101781;28;20422;-74
2023/01/21 01:38:55;;;;;;;60.03;30.60;;;;;;;;;;5068216;28;20432;-74
2023/01/21 01:41:23;;;;;;;62.33;32.15;;;;;;;;;;5088922;28;20905;-74
2023/01/21 01:43:49;;;;;;;61.70;31.25;;;;;;;;;;5089807;28;20425;-74
2023/01/21 01:46:15;;;;;;;60.00;31.70;;;;;;;;;;5073715;28;20436;-74
2023/01/21 01:48:42;;;;;;;68.97;33.75;;;;;;;;;;5087825;28;20450;-74
2023/01/21 01:51:09;;;;;;;69.55;32.90;;;;;;;;;;5079191;28;20408;-74
2023/01/21 01:53:36;;;;;;;73.97;34.97;;;;;;;;;;5072797;28;20904;-74
2023/01/21 01:56:03;;;;;;;71.50;34.38;;;;;;;;;;5090341;28;20458;-74
2023/01/21 01:58:30;;;;;;;65.95;33.30;;;;;;;;;;5086939;28;20429;-74
2023/01/21 02:00:57;;;;;;;69.22;34.30;;;;;;;;;;5079069;28;20420;-74
2023/01/21 02:06:08;;;;;;;68.78;33.13;;;;;;;;;;5074601;28;20414;-74
2023/01/21 02:08:35;;;;;;;66.18;32.17;;;;;;;;;;5087627;28;20480;-74
2023/01/21 02:11:01;;;;;;;61.85;31.02;;;;;;;;;;5074155;28;20977;-74
2023/01/21 02:13:28;;;;;;;60.25;31.27;;;;;;;;;;5089913;28;20956;-74
2023/01/21 02:16:02;;;;;;;57.70;30.73;;;;;;;;;;5080118;28;20415;-74
2023/01/21 02:18:38;;;;;;;56.23;30.30;;;;;;;;;;5074101;28;20440;-74
2023/01/21 02:21:18;;;;;;;57.70;30.33;;;;;;;;;;5072237;28;20422;-74
2023/01/21 02:24:02;;;;;;;57.03;30.30;;;;;;;;;;5071709;28;20464;-75
2023/01/21 02:26:37;;;;;;;58.17;30.13;;;;;;;;;;5070566;28;20400;-74
2023/01/21 02:29:34;;;;;;;58.65;29.90;;;-0.70;99.90;;;;;;5082256;28;20868;-74
2023/01/21 02:32:20;;;;;;;56.90;29.90;;;;;;;;;;5103712;28;20453;-74
2023/01/21 02:34:49;;;;;;;57.30;29.52;;;;;;;;;;5072150;28;20471;-74
2023/01/21 02:37:41;;;;;;;61.50;30.10;;;;;;;;;;5071824;28;20417;-75
2023/01/21 02:40:11;;;;;;;57.00;29.45;;;;;;;;;;5096483;27;20416;-75
2023/01/21 02:42:59;;;;;;;63.50;32.15;;;;;;;;;;5085788;28;20432;-74
2023/01/21 02:45:28;;;;;;;60.63;30.65;;;;;;;;;;5086062;28;20406;-75
2023/01/21 02:47:54;;;;;;;63.25;32.05;;;;;;;;;;5090177;28;20782;-75
2023/01/21 02:50:22;;;;;;;68.07;32.97;;;;;;;;;;5073076;28;20410;-75
2023/01/21 02:52:58;;;;;;;74.15;33.63;;;;;;;;;;5087841;28;20414;-74
2023/01/21 02:55:51;;;;;;;65.20;32.13;;;;;;;;;;5085606;28;20414;-75
2023/01/21 02:58:19;;;;;;;58.80;30.98;;;;;;;;;;5083615;28;20417;-75
2023/01/21 03:00:51;;;;;;;58.70;30.98;;;;;;;;;;5082582;28;20763;-78
2023/01/21 03:03:31;;;;;;;63.53;31.13;;;;;;;;;;5089533;28;20494;-79
2023/01/21 03:06:03;;;;;;;58.47;31.02;;;;;;;;;;5073727;28;20414;-79
2023/01/21 03:08:39;;;;;;;60.08;30.25;;;;;;;;;;5074672;28;20414;-79
2023/01/21 03:11:14;;;;;;;57.67;29.90;;;;;;;;;;5076284;28;20401;-78
2023/01/21 03:19:20;;;;;;;64.38;31.42;;;;;;;;;;5093519;28;20413;-79
2023/01/21 03:21:47;;;;;;;70.18;35.92;;;;;;;;;;5093617;28;20804;-79
2023/01/21 03:24:14;;;;;;;69.33;36.17;;;;;;;;;;5080556;28;20431;-78
2023/01/21 03:26:49;;;;;;;75.93;38.10;;;;;;;;;;5108870;28;20421;-78
2023/01/21 03:29:18;;;;;;;76.55;37.88;;;;;;;;;;5092461;28;20418;-78
2023/01/21 03:31:46;;;;;;;72.53;35.90;;;;;;;;;;5092851;28;20413;-78
2023/01/21 03:34:14;;;;;;;71.93;35.13;;;;;;;;;;5093547;28;20416;-78
2023/01/21 03:36:44;;;;;;;69.70;36.13;;;;;;;;;;5086988;28;20494;-79
2023/01/21 03:39:14;;;;;;;75.65;36.13;;;;;;;;;;5088389;28;20464;-78
2023/01/21 03:41:40;;;;;;;72.32;35.58;;;;;;;;;;5091296;28;20417;-78
2023/01/21 03:44:06;;;;;;;75.88;35.95;;;;;;;;;;5088611;28;20423;-78
2023/01/21 03:46:37;;;;;;;75.13;36.43;;;;;;;;;;5088397;28;20513;-78
2023/01/21 03:49:12;;;;;;;85.53;38.60;;;;;;;;;;5074973;28;20464;-78
2023/01/21 03:51:45;;;;;;;73.68;34.75;;;;;;;;;;5088670;28;20419;-78
2023/01/21 03:54:12;;;;;;;81.30;37.67;;;;;;;;;;5089999;28;20464;-78
2023/01/21 03:56:38;;;;;;;84.72;36.88;;;;;;;;;;5089654;28;20503;-78
2023/01/21 03:59:04;;;;;;;81.85;38.65;;;;;;;;;;5073154;28;20423;-78
2023/01/21 04:01:30;;;;;;;85.72;39.45;;;;;;;;;;5106525;27;20507;-78
2023/01/21 04:03:56;;;;;;;80.80;39.20;;;;;;;;;;5086823;28;20783;-78
2023/01/21 04:06:22;;;;;;;89.40;40.67;;;;;;;;;;5108251;28;20503;-78
2023/01/21 04:08:49;;;;;;;94.88;42.20;;;;;;;;;;5092416;28;20418;-78
2023/01/21 04:11:15;;;;;;;95.85;42.38;;;;;;;;;;5059517;28;20411;-78
2023/01/21 04:13:41;;;;;;;92.17;41.47;;;;;;;;;;5123743;27;20524;-77
2023/01/21 04:16:07;;;;;;;94.57;43.17;;;;;;;;;;5089707;28;20425;-78
2023/01/21 04:18:33;;;;;;;93.50;41.25;;;;;;;;;;5072658;28;20444;-78
2023/01/21 04:20:59;;;;;;;96.07;42.67;;;;;;;;;;5083349;28;20444;-78
2023/01/21 04:23:25;;;;;;;90.77;41.20;;;;;;;;;;5092972;28;20426;-78
2023/01/21 04:25:52;;;;;;;84.88;39.25;;;;;;;;;;5092267;28;20414;-77
2023/01/21 04:28:18;;;;;;;86.20;39.47;;;;;;;;;;5074142;28;20431;-78
2023/01/21 04:30:46;;;;;;;81.40;38.70;;;;;;;;;;5074612;28;20952;-78
2023/01/21 04:33:12;;;;;;;76.75;38.03;;;;;;;;;;5074916;28;20517;-77
2023/01/21 04:35:38;;;;;;;82.57;39.90;;;;;;;;;;5074796;28;20434;-78
2023/01/21 04:38:05;;;;;;;84.63;39.47;;;;;;;;;;5059043;28;20402;-78
2023/01/21 04:40:31;;;;;;;86.35;38.90;;;;;;;;;;5089078;28;20422;-78
2023/01/21 04:42:57;;;;;;;82.95;39.08;;;;;;;;;;5091551;28;20414;-78
2023/01/21 04:45:23;;;;;;;83.03;38.60;;;;;;;;;;5125865;27;20459;-78
2023/01/21 04:47:49;;;;;;;107.57;41.15;;;;;;;;;;5072775;28;20418;-78
2023/01/21 04:50:15;;;;;;;93.43;41.50;;;;;;;;;;5075215;28;20814;-78
2023/01/21 04:52:42;;;;;;;86.87;40.03;;;;;;;;;;5083099;28;20530;-78
2023/01/21 04:55:08;;;;;;;87.78;40.05;;;;;;;;;;5119262;27;20431;-78
2023/01/21 04:57:34;;;;;;;79.32;38.25;;;;;;;;;;5105851;28;20400;-78
2023/01/21 05:00:00;;;;;;;85.55;39.13;;;;;;;;;;5073530;28;21025;-78
2023/01/21 05:02:27;;;;;;;81.95;37.72;;;;;;;;;;5095989;28;20492;-78
2023/01/21 05:04:53;;;;;;;90.97;40.97;;;;;;;;;;5074783;28;20426;-78
2023/01/21 05:07:19;;;;;;;85.13;38.65;;;;;;;;;;5079820;28;20561;-78
2023/01/21 05:09:45;;;;;;;80.80;37.53;;;;;;;;;;5112532;27;20426;-78
2023/01/21 05:12:11;;;;;;;76.53;37.15;;;;;;;;;;5070622;28;20412;-78
2023/01/21 05:14:37;;;;;;;74.80;36.10;;;;;;;;;;5097187;28;20498;-77
2023/01/21 05:17:03;;;;;;;79.05;37.15;;;;;;;;;;5091359;28;20426;-77
2023/01/21 05:19:29;;;;;;;76.78;38.35;;;;;;;;;;5074108;28;20402;-78
2023/01/21 05:21:55;;;;;;;80.90;37.97;;;;;;;;;;5089167;28;20422;-77
2023/01/21 05:24:21;;;;;;;91.82;41.35;;;;;;;;;;5091687;28;20428;-77
2023/01/21 05:26:48;;;;;;;81.40;39.15;;;;;;;;;;5071842;28;20445;-77
2023/01/21 05:29:15;;;;;;;77.63;38.00;;;;;;;;;;5090744;28;20950;-77
2023/01/21 05:31:42;;;;;;;77.13;38.37;;;;;;;;;;5089984;28;20929;-77
2023/01/21 05:34:09;;;;;;;74.63;36.25;;;;;;;;;;5074571;28;20402;-77
2023/01/21 05:36:35;;;;;;;83.00;39.40;;;;;;;;;;5067535;28;20784;-77
2023/01/21 05:39:01;;;;;;;74.00;37.90;;;;;;;;;;5090111;28;20439;-77
2023/01/21 05:41:27;;;;;;;76.65;38.60;;;;;;;;;;5075889;28;20448;-77
2023/01/21 05:43:53;;;;;;;79.30;38.97;;;;;;;;;;5073587;28;20452;-77
2023/01/21 05:46:19;;;;;;;78.45;38.42;;;;;;;;;;5072479;28;20421;-77
2023/01/21 05:48:45;;;;;;;74.55;38.53;;;;;;;;;;5074347;28;20410;-77
2023/01/21 05:51:11;;;;;;;79.20;38.63;;;;;;;;;;5072025;28;20421;-77
2023/01/21 05:53:37;;;;;;;77.35;38.67;;;;;;;;;;5086599;28;20416;-77
2023/01/21 05:56:03;;;;;;;85.70;41.70;;;;;;;;;;5118866;27;20471;-77
2023/01/21 05:58:29;;;;;;;88.20;40.47;;;;;;;;;;5074367;28;20892;-74
2023/01/21 06:00:56;;;;;;;77.50;38.15;;;;;;;;;;5085362;28;20502;-74
2023/01/21 06:03:23;;;;;;;86.90;41.17;;;;;;;;;;5070885;28;20792;-75
2023/01/21 06:05:49;;;;;;;80.22;39.10;;;;;;;;;;5082599;28;20421;-75
2023/01/21 06:08:15;;;;;;;77.32;40.15;;;;;;;;;;5073720;28;20406;-75
2023/01/21 06:10:41;;;;;;;77.75;38.15;;;;;;;;;;5079896;28;20445;-75
2023/01/21 06:13:10;;;;;;;82.05;40.15;;;;;;;;;;5073799;28;20491;-75
2023/01/21 06:15:36;;;;;;;82.07;39.67;;;;;;;;;;5123594;27;20424;-75
2023/01/21 06:18:03;;;;;;;81.80;39.47;;;;;;;;;;5090908;28;20401;-74
2023/01/21 06:20:30;;;;;;;79.03;39.70;;;;;;;;;;5087892;28;20901;-74
2023/01/21 06:22:56;;;;;;;73.68;37.85;;;;;;;;;;5072590;28;20417;-74
2023/01/21 06:25:23;;;;;;;74.17;37.47;;;;;;;;;;5085402;28;20436;-74
2023/01/21 06:27:49;;;;;;;79.53;39.10;;;;;;;;;;5083901;28;20411;-74
2023/01/21 06:30:15;;;;;;;80.22;38.83;;;;;;;;;;5090682;28;20480;-74
2023/01/21 06:32:41;;;;;;;75.32;38.58;;;;;;;;;;5086156;28;20410;-74
2023/01/21 06:35:08;;;;;;;77.05;37.58;;;;;;;;;;5100361;28;20420;-74
2023/01/21 06:37:34;;;;;;;77.45;38.33;;;;;;;;;;5081776;28;20913;-74
2023/01/21 06:40:00;;;;;;;79.18;38.92;;;;;;;;;;5071102;28;20418;-77
2023/01/21 06:42:26;;;;;;;81.20;39.38;;;;;;;;;;5086109;28;20427;-77
2023/01/21 06:44:52;;;;;;;83.10;39.83;;;;;;;;;;5091584;28;20510;-77
2023/01/21 06:47:18;;;;;;;77.17;38.50;;;;;;;;;;5090154;28;20433;-77
2023/01/21 06:49:44;;;;;;;78.40;38.85;;;;;;;;;;5089272;28;20489;-78
2023/01/21 06:52:10;;;;;;;80.32;39.00;;;;;;;;;;5069018;28;20414;-78
2023/01/21 06:54:36;;;;;;;79.30;39.67;;;;;;;;;;5057055;28;21144;-77
2023/01/21 06:57:02;;;;;;;77.55;39.40;;;;;;;;;;5086067;28;20418;-77
2023/01/21 06:59:28;;;;;;;76.38;38.30;;;;;;;;;;5090016;28;20556;-77
2023/01/21 07:01:57;;;;;;;77.47;39.30;;;;;;;;;;5090144;28;20421;-74
2023/01/21 07:04:24;;;;;;;74.05;38.15;;;;;;;;;;5073268;28;20421;-74
2023/01/21 07:06:50;;;;;;;74.05;38.47;;;;;;;;;;5070646;28;20448;-75
2023/01/21 07:09:16;;;;;;;72.50;38.77;;;;;;;;;;5104046;28;20534;-75
2023/01/21 07:11:42;;;;;;;81.72;39.58;;;;;;;;;;5087068;28;20414;-75
2023/01/21 07:14:08;;;;;;;74.95;37.72;;;;;;;;;;5070080;28;20926;-77
2023/01/21 07:16:34;;;;;;;76.72;38.83;;;;;;;;;;5072756;28;20425;-77
2023/01/21 07:19:00;;;;;;;76.57;37.35;;;;;;;;;;5073042;28;20492;-77
2023/01/21 07:21:27;;;;;;;76.13;38.35;;;;;;;;;;5077716;28;20425;-77
2023/01/21 07:23:53;;;;;;;74.47;38.45;;;;;;;;;;5071792;28;20422;-77
2023/01/21 07:26:19;;;;;;;74.72;37.78;;;;;;;;;;5081108;28;20418;-77
2023/01/21 07:28:45;;;;;;;77.95;39.08;;;;;;;;;;5073540;28;20467;-77
2023/01/21 07:31:12;;;;;;;81.65;38.63;;;;;;;;;;5072781;28;20414;-77
2023/01/21 07:33:39;;;;;;;83.85;39.22;;;;;;;;;;5091770;28;20394;-77
2023/01/21 07:36:05;;;;;;;87.00;39.50;;;;;;;;;;5071656;28;20426;-77
2023/01/21 07:38:31;;;;;;;83.45;40.47;;;;;;;;;;5083763;28;20452;-76
2023/01/21 07:40:57;;;;;;;87.40;42.25;;;;;;;;;;5116472;27;20932;-76
2023/01/21 07:43:24;;;;;;;85.22;39.85;;;;;;;;;;5064851;28;20457;-78
2023/01/21 07:45:50;;;;;;;80.22;38.55;;;;;;;;;;5108567;27;20424;-79
2023/01/21 07:48:16;;;;;;;81.45;39.17;;;;;;;;;;5103268;28;20473;-75
2023/01/21 07:50:42;;;;;;;76.90;38.00;;;;;;;;;;5052132;28;20439;-76
2023/01/21 07:53:10;;;;;;;77.07;38.28;;;;;;;;;;5087190;28;20396;-76
2023/01/21 07:55:36;;;;;;;79.75;39.13;;;;;;;;;;5089720;27;20423;-75
2023/01/21 07:58:02;;;;;;;84.72;40.78;;;;;;;;;;5073575;28;20448;-76
2023/01/21 08:00:28;;;;;;;84.53;39.63;;;;;;;;;;5080882;28;20486;-76
2023/01/21 08:02:55;;;;;;;91.65;42.25;;;;;;;;;;5071704;28;20940;-75
2023/01/21 08:05:21;;;;;;;80.03;38.35;;;;;;;;;;5065876;28;20475;-75
2023/01/21 08:07:47;;;;;;;79.53;37.95;;;;;;;;;;5073014;28;20441;-76
2023/01/21 08:10:14;;;;;;;76.53;38.83;;;;;;;;;;5074550;28;20409;-76
2023/01/21 08:12:40;;;;;;;83.47;40.40;;;;;;;;;;5122083;27;20995;-76
2023/01/21 08:15:07;;;;;;;77.18;37.70;;;;;;;;;;5106586;28;20425;-77
2023/01/21 08:17:33;;;;;;;77.53;37.83;;;;;;;;;;5075150;28;20863;-77
2023/01/21 08:19:59;;;;;;;77.40;37.95;;;;;;;;;;5068162;28;20468;-77
2023/01/21 08:22:25;;;;;;;87.90;42.13;;;;;;;;;;5090024;28;20430;-76
2023/01/21 08:24:52;;;;;;;90.15;42.15;;;;;;;;;;5091777;28;20475;-75
2023/01/21 08:27:18;;;;;;;88.75;41.03;;;;;;;;;;5086447;28;20414;-76
2023/01/21 08:29:45;;;;;;;79.47;39.55;;;;;;;;;;5108260;28;20417;-77
2023/01/21 08:32:11;;;;;;;79.85;39.60;;;;;;;;;;5075607;28;20493;-76
2023/01/21 08:34:37;;;;;;;85.50;40.70;;;;;;;;;;5082624;28;20487;-76
2023/01/21 08:37:04;;;;;;;86.10;42.93;;;;;;;;;;5077681;28;20449;-76
2023/01/21 08:39:30;;;;;;;86.75;43.90;;;;;;;;;;5075475;28;20419;-76
2023/01/21 08:41:56;;;;;;;86.15;42.63;;;;;;;;;;5118971;27;20417;-76
2023/01/21 08:44:22;;;;;;;79.30;38.15;;;;;;;;;;5088565;28;20457;-76
2023/01/21 08:46:48;;;;;;;76.70;38.78;;;;;;;;;;5072543;28;20433;-76
2023/01/21 08:49:14;;;;;;;76.00;39.20;;;;;;;;;;5085705;28;20444;-76
2023/01/21 08:51:40;;;;;;;73.53;36.97;;;;;;;;;;5087556;28;20471;-76
2023/01/21 08:54:07;;;;;;;72.65;36.03;;;;;;;;;;5072789;28;20425;-76
2023/01/21 08:56:33;;;;;;;70.63;36.50;;;;;;;;;;5089197;28;20429;-77
2023/01/21 08:59:01;;;;;;;70.30;35.67;;;;;;;;;;5072017;28;20521;-76
2023/01/21 09:01:28;;;;;;;76.07;38.03;;;;;;;;;;5072713;28;20802;-76
2023/01/21 09:03:57;;;;;;;73.15;38.78;;;;;;;;;;5072425;28;20920;-77
2023/01/21 09:06:25;;;;;;;75.50;38.72;;;;;;;;;;5069726;28;20496;-76
2023/01/21 09:08:51;;;;;;;80.28;42.25;;;;;;;;;;5086873;28;20448;-76
2023/01/21 09:11:17;;;;;;;81.18;42.35;;;;;;;;;;5082895;28;20419;-76
2023/01/21 09:13:43;;;;;;;82.90;41.33;;;;;;;;;;5073364;28;20630;-76
2023/01/21 09:16:14;;;;;;;83.18;41.63;;;;;;;;;;5058812;28;20430;-77
2023/01/21 09:18:41;;;;;;;81.95;40.90;;;;;;;;;;5075890;28;20564;-77
2023/01/21 09:21:07;;;;;;;75.70;39.17;;;;;;;;;;5088171;28;20410;-76
2023/01/21 09:23:34;;;;;;;75.07;38.83;;;;;;;;;;5071964;28;20504;-76
2023/01/21 09:26:02;;;;;;;73.32;38.58;;;;;;;;;;5098298;28;20422;-76
2023/01/21 09:28:28;;;;;;;66.68;35.67;;;;;;;;;;5084280;28;20418;-76
2023/01/21 09:30:56;;;;;;;64.55;35.55;;;;;;;;;;5068748;28;20850;-76
2023/01/21 09:33:22;;;;;;;67.95;36.47;;;;;;;;;;5082751;28;20795;-76
2023/01/21 09:35:54;;;;;;;71.93;38.13;;;;;;;;;;5071919;28;20982;-75
2023/01/21 09:38:21;;;;;;;74.10;39.00;;;;;;;;;;5066080;28;20424;-77
2023/01/21 09:40:47;;;;;;;69.18;36.42;;;;;;;;;;5083552;28;20565;-77
2023/01/21 09:43:16;;;;;;;61.33;34.08;;;;;;;;;;5068146;28;20615;-76
2023/01/21 09:45:43;;;;;;;58.17;31.92;;;;;;;;;;5107708;27;20412;-77
2023/01/21 09:48:11;;;;;;;60.80;32.75;;;;;;;;;;5091445;28;20511;-77
2023/01/21 09:50:38;;;;;;;57.97;32.35;;;;;;;;;;5063388;28;20437;-78
2023/01/21 09:53:10;;;;;;;58.70;32.83;;;;;;;;;;5078146;28;20445;-76
2023/01/21 09:55:46;;;;;;;60.25;32.55;;;;;;;;;;5107073;27;20425;-76
2023/01/21 09:58:15;;;;;;;58.20;33.53;;;;;;;;;;5094461;28;20412;-76
2023/01/21 10:00:59;;;;;;;52.72;30.77;;;;;;;;;;5077080;28;20415;-76
2023/01/21 10:03:29;;;;;;;57.25;31.67;;;;;;;;;;5086775;28;20423;-76
2023/01/21 10:06:08;;;;;;;58.20;31.73;;;;;;;;;;5101580;28;20909;-76
2023/01/21 10:08:50;;;;;;;53.80;30.67;;;;;;;;;;5084264;28;20463;-76
2023/01/21 10:11:28;;;;;;;56.47;32.35;;;;;;;;;;5065187;28;20946;-76
2023/01/21 10:13:54;;;;;;;57.08;30.80;;;;;;;;;;5084618;28;20469;-79
2023/01/21 10:16:26;;;;;;;55.70;31.10;;;;;;;;;;5106199;27;20427;-77
2023/01/21 10:18:53;;;;;;;54.55;30.85;;;;;;;;;;5060046;28;20426;-78
2023/01/21 10:21:31;;;;;;;53.30;31.02;;;;;;;;;;5069707;28;20453;-77
2023/01/21 10:24:03;;;;;;;51.90;30.00;;;;;;;;;;5071753;28;20770;-79
2023/01/21 10:26:30;;;;;;;52.13;30.63;;;;;;;;;;5087098;28;20497;-78
2023/01/21 10:28:56;;;;;;;52.13;29.92;;;;;;;;;;5069691;28;20451;-78
2023/01/21 10:31:24;;;;;;;51.13;30.08;;;;;;;;;;5071220;28;20825;-78
2023/01/21 10:33:50;;;;;;;55.08;31.48;;;;;;;;;;5069685;28;20451;-78
2023/01/21 10:36:25;;;;;;;52.55;29.73;;;;;;;;;;5068654;28;20513;-79
2023/01/21 10:38:51;;;;;;;52.97;30.00;;;;;;;;;;5111182;27;20421;-79
2023/01/21 10:41:20;;;;;;;51.13;30.10;;;;;;;;;;5069984;28;20948;-77
2023/01/21 10:43:50;;;;;;;53.50;30.17;;;;;;;;;;5086416;28;20436;-78
2023/01/21 10:46:19;;;;;;;53.53;31.33;;;;;;;;;;5081315;28;20770;-79
2023/01/21 10:48:50;;;;;;;57.13;32.55;;;;;;;;;;5079975;28;20470;-81
2023/01/21 10:51:21;;;;;;;57.00;32.20;;;;;;;;;;5071143;28;20406;-81
2023/01/21 10:53:53;;;;;;;55.03;33.20;;;;;;;;;;5098722;28;20426;-81
2023/01/21 10:56:31;;;;;;;55.05;33.63;;;;;;;;;;5102623;28;20429;-81
2023/01/21 10:59:00;;;;;;;58.00;34.22;;;;;;;;;;5082675;28;20433;-81
2023/01/21 11:01:32;;;;;;;56.13;32.55;;;;;;;;;;5070663;28;20895;-81
2023/01/21 11:04:00;;;;;;;47.28;28.50;;;;;;;;;;5072011;28;20464;-81
2023/01/21 11:06:28;;;;;;;40.65;24.33;;;;;;;;;;5062526;28;20511;-81
2023/01/21 11:08:57;;;;;;;39.58;23.60;;;;;;;;;;5108775;28;20882;-82
2023/01/21 11:11:28;;;;;;;38.00;24.10;;;;;;;;;;5094749;28;20423;-81
2023/01/21 11:13:54;;;;;;;36.70;23.50;;;;;;;;;;5083839;28;20418;-82
2023/01/21 11:16:53;;;;;;;39.00;24.10;;;;;;;;;;5077960;28;20427;-82
2023/01/21 11:19:25;;;;;;;38.53;24.10;;;;;;;;;;5038473;28;20551;-81
2023/01/21 11:22:00;;;;;;;36.58;23.70;;;;;;;;;;5063741;28;20921;-82
2023/01/21 11:24:27;;;;;;;36.70;22.70;;;;;;;;;;5094107;28;20439;-82
2023/01/21 11:26:54;;;;;;;36.35;22.40;;;;;;;;;;5099007;28;20417;-83
2023/01/21 11:29:21;;;;;;;37.30;23.52;;;;;;;;;;5118349;27;20509;-80
2023/01/21 11:31:50;;;;;;;37.58;23.65;;;;;;;;;;5110560;27;20446;-82
2023/01/21 11:34:17;;;;;;;39.90;23.77;;;;;;;;;;5067988;28;20432;-82
2023/01/21 11:37:13;;;;;;;35.83;23.05;;;;;;;;;;5084645;28;20421;-82
2023/01/21 11:39:40;;;;;;;37.20;23.27;;;;;;;;;;5105713;27;20421;-81
2023/01/21 11:42:07;;;;;;;38.58;24.80;;;;;;;;;;5083957;28;20443;-82
2023/01/21 11:44:34;;;;;;;38.80;23.65;;;;;;;;;;5085255;28;20432;-82
2023/01/21 11:47:00;;;;;;;39.80;24.07;;;;;;;;;;5085659;28;20816;-82
2023/01/21 11:49:28;;;;;;;38.63;24.13;;;;;;;;;;5102041;28;20440;-81
2023/01/21 11:52:09;;;;;;;38.38;24.23;;;;;;;;;;5091091;28;20454;-81
2023/01/21 11:54:39;;;;;;;42.55;24.88;;;;;;;;;;5073074;28;20430;-81
2023/01/21 11:57:05;;;;;;;36.90;23.83;;;;;;;;;;5073804;28;20453;-82
2023/01/21 11:59:34;;;;;;;38.40;24.83;;;;;;;;;;5085416;28;20420;-82
2023/01/21 12:02:03;;;;;;;38.03;24.45;;;;;;;;;;5089386;28;20429;-81
2023/01/21 12:04:29;;;;;;;37.13;23.33;;;;;;;;;;5091183;28;20953;-82
2023/01/21 12:06:59;;;;;;;33.35;21.17;;;;;;;;;;5088551;28;20445;-82
2023/01/21 12:09:26;;;;;;;34.75;21.65;;;;;;;;;;5091866;28;20424;-82
2023/01/21 12:12:11;;;;;;;29.58;20.20;;;;;;;;;;5085188;28;20417;-82
2023/01/21 12:14:49;;;;;;;30.75;19.95;;;;;;;;;;5099736;28;20491;-81
2023/01/21 12:17:26;;;;;;;30.58;20.40;;;;;;;;;;5092338;28;20444;-80
2023/01/21 12:19:55;;;;;;;28.02;18.40;;;;;;;;;;5114411;27;20419;-80
2023/01/21 12:22:40;;;;;;;26.17;17.75;;;;;;;;;;5090722;28;20780;-81
2023/01/21 12:25:21;;;;;;;26.85;18.50;;;;;;;;;;5102128;28;20427;-80
2023/01/21 12:28:06;;;;;;;24.53;16.63;;;;;;;;;;5073386;28;20745;-79
2023/01/21 12:30:32;;;;;;;24.13;16.77;;;;;;;;;;5081083;28;20414;-80
2023/01/21 12:33:00;;;;;;;26.15;17.27;;;;;;;;;;5073719;28;20475;-80
2023/01/21 12:35:36;;;;;;;27.38;17.77;;;6.20;99.90;;;;;;5082125;28;20886;-79
2023/01/21 12:38:10;;;;;;;25.60;17.00;;;;;;;;;;5079338;28;20426;-80
2023/01/21 12:40:40;;;;;;;24.95;16.52;;;;;;;;;;5081047;28;20842;-81
2023/01/21 12:43:12;;;;;;;22.75;16.13;;;;;;;;;;5073557;28;20400;-80
2023/01/21 12:46:00;;;;;;;22.52;15.45;;;;;;;;;;5090204;28;20939;-80
2023/01/21 12:48:33;;;;;;;20.93;14.73;;;;;;;;;;5088252;28;20730;-81
2023/01/21 12:51:02;;;;;;;21.15;14.98;;;;;;;;;;5077542;28;20447;-80
2023/01/21 12:54:09;;;;;;;22.00;15.13;;;6.00;99.90;;;;;;5090889;28;20429;-81
2023/01/21 12:56:53;;;;;;;22.05;14.57;;;;;;;;;;5074248;28;20428;-81
2023/01/21 12:59:28;;;;;;;22.40;15.70;;;;;;;;;;5114717;27;20432;-81
2023/01/21 13:02:13;;;;;;;20.70;14.80;;;;;;;;;;5078424;28;20482;-81
2023/01/21 13:04:44;;;;;;;16.23;11.43;;;;;;;;;;5098089;28;20422;-81
2023/01/21 13:07:10;;;;;;;15.35;11.40;;;;;;;;;;5084919;28;20444;-80
2023/01/21 13:09:42;;;;;;;17.50;10.73;;;;;;;;;;5070936;28;20936;-80
2023/01/21 13:12:24;;;;;;;9.88;7.25;;;;;;;;;;5077492;28;20406;-80
2023/01/21 13:14:56;;;;;;;11.40;6.95;;;;;;;;;;5090807;28;20414;-81
2023/01/21 13:17:24;;;;;;;12.13;8.50;;;;;;;;;;5089433;28;20431;-80
2023/01/21 13:19:50;;;;;;;13.10;9.70;;;;;;;;;;5074103;28;20456;-81
2023/01/21 13:22:19;;;;;;;12.90;9.20;;;;;;;;;;5090671;28;21005;-81
2023/01/21 13:25:01;;;;;;;11.77;9.13;;;;;;;;;;5070379;28;21004;-81
2023/01/21 13:27:40;;;;;;;11.73;8.50;;;;;;;;;;5086364;28;20930;-81
2023/01/21 13:30:29;;;;;;;11.50;8.30;;;;;;;;;;5086329;28;20769;-81
2023/01/21 13:33:04;;;;;;;12.63;9.10;;;;;;;;;;5083585;27;20421;-81
2023/01/21 13:35:30;;;;;;;11.02;7.40;;;;;;;;;;5081178;28;20442;-81
2023/01/21 13:38:06;;;;;;;10.57;7.33;;;;;;;;;;5077028;28;20437;-81
2023/01/21 13:40:57;;;;;;;9.40;6.75;;;5.20;99.90;;;;;;5071045;28;20414;-81
2023/01/21 13:43:23;;;;;;;9.60;6.85;;;;;;;;;;5080433;28;20432;-81
2023/01/21 13:45:56;;;;;;;9.87;6.93;;;;;;;;;;5081976;28;20418;-81
2023/01/21 13:48:43;;;;;;;9.67;6.70;;;;;;;;;;5088385;28;20594;-81
2023/01/21 13:51:12;;;;;;;10.05;6.97;;;;;;;;;;5080412;28;20479;-81
2023/01/21 13:53:38;;;;;;;13.30;9.50;;;;;;;;;;5070481;28;20409;-80
2023/01/21 13:56:10;;;;;;;16.10;11.37;;;;;;;;;;5080167;28;20915;-81
2023/01/21 13:58:47;;;;;;;11.10;8.05;;;;;;;;;;5086285;28;20417;-82
2023/01/21 14:01:17;;;;;;;14.57;11.88;;;;;;;;;;5076755;28;20413;-81
2023/01/21 14:03:49;;;;;;;16.50;10.03;;;;;;;;;;5095535;28;20829;-81
2023/01/21 14:06:15;;;;;;;14.43;11.93;;;;;;;;;;5100109;28;20441;-81
2023/01/21 14:08:41;;;;;;;13.63;9.80;;;;;;;;;;5073252;28;20413;-81
2023/01/21 14:11:20;;;;;;;14.98;10.15;;;;;;;;;;5085731;28;20418;-81
2023/01/21 14:13:49;;;;;;;14.70;10.30;;;;;;;;;;5071816;28;20474;-81
2023/01/21 14:16:28;;;;;;;17.87;13.60;;;;;;;;;;5076439;28;20551;-80
2023/01/21 14:18:54;;;;;;;14.88;11.30;;;;;;;;;;5090126;28;20474;-80
2023/01/21 14:21:38;;;;;;;21.57;16.07;;;;;;;;;;5088655;28;20796;-80
2023/01/21 14:24:04;;;;;;;13.63;9.93;;;;;;;;;;5079128;28;20426;-80
2023/01/21 14:26:43;;;;;;;12.30;8.45;;;;;;;;;;5091230;28;20581;-81
2023/01/21 14:29:09;;;;;;;19.27;15.03;;;;;;;;;;5070288;28;20940;-80
2023/01/21 14:31:46;;;;;;;11.20;8.05;;;;;;;;;;5086363;28;20826;-81
2023/01/21 14:34:19;;;;;;;11.75;8.25;;;;;;;;;;5109170;27;20427;-80
2023/01/21 14:36:50;;;;;;;14.45;10.23;;;;;;;;;;5086736;28;20819;-81